sensor_id;sensor_type;location;lat;lon;timestamp;P1;durP1;ratioP1;P2;durP2;ratioP2
64854;SDS011;51321;50.428;8.378;2024-03-02T00:00:50;9.05;;;5.43;;
64854;SDS011;51321;50.428;8.378;2024-03-02T00:03:32;11.15;;;7.03;;
64854;SDS011;51321;50.428;8.378;2024-03-02T00:06:12;10.98;;;7.63;;
64854;SDS011;51321;50.428;8.378;2024-03-02T00:08:56;20.70;;;10.15;;
64854;SDS011;51321;50.428;8.378;2024-03-02T00:11:38;14.48;;;9.18;;
64854;SDS011;51321;50.428;8.378;2024-03-02T00:14:20;15.07;;;8.40;;
64854;SDS011;51321;50.428;8.378;2024-03-02T00:17:02;17.27;;;9.48;;
64854;SDS011;51321;50.428;8.378;2024-03-02T00:19:43;16.67;;;9.48;;
64854;SDS011;51321;50.428;8.378;2024-03-02T00:22:24;19.65;;;10.63;;
64854;SDS011;51321;50.428;8.378;2024-03-02T00:25:07;21.63;;;13.63;;
64854;SDS011;51321;50.428;8.378;2024-03-02T00:27:49;21.08;;;11.13;;
64854;SDS011;51321;50.428;8.378;2024-03-02T00:30:38;20.02;;;10.77;;
64854;SDS011;51321;50.428;8.378;2024-03-02T00:33:36;18.15;;;9.77;;
64854;SDS011;51321;50.428;8.378;2024-03-02T00:36:21;18.08;;;10.40;;
64854;SDS011;51321;50.428;8.378;2024-03-02T00:39:06;13.57;;;8.23;;
64854;SDS011;51321;50.428;8.378;2024-03-02T00:44:28;10.13;;;6.50;;
64854;SDS011;51321;50.428;8.378;2024-03-02T00:47:16;9.73;;;5.70;;
64854;SDS011;51321;50.428;8.378;2024-03-02T00:49:57;12.55;;;8.00;;
64854;SDS011;51321;50.428;8.378;2024-03-02T00:52:37;17.15;;;10.25;;
64854;SDS011;51321;50.428;8.378;2024-03-02T00:55:18;23.50;;;11.73;;
64854;SDS011;51321;50.428;8.378;2024-03-02T00:57:59;26.63;;;14.00;;
64854;SDS011;51321;50.428;8.378;2024-03-02T01:00:39;17.98;;;10.55;;
64854;SDS011;51321;50.428;8.378;2024-03-02T01:03:21;17.92;;;10.10;;
64854;SDS011;51321;50.428;8.378;2024-03-02T01:06:02;13.45;;;7.85;;
64854;SDS011;51321;50.428;8.378;2024-03-02T01:08:43;16.90;;;8.82;;
64854;SDS011;51321;50.428;8.378;2024-03-02T01:11:24;16.27;;;8.15;;
64854;SDS011;51321;50.428;8.378;2024-03-02T01:14:05;11.27;;;7.20;;
64854;SDS011;51321;50.428;8.378;2024-03-02T01:16:45;13.52;;;7.93;;
64854;SDS011;51321;50.428;8.378;2024-03-02T01:19:27;12.25;;;7.97;;
64854;SDS011;51321;50.428;8.378;2024-03-02T01:22:07;16.47;;;9.77;;
64854;SDS011;51321;50.428;8.378;2024-03-02T01:24:49;14.50;;;8.57;;
64854;SDS011;51321;50.428;8.378;2024-03-02T01:27:29;15.07;;;8.98;;
64854;SDS011;51321;50.428;8.378;2024-03-02T01:30:10;11.93;;;8.35;;
64854;SDS011;51321;50.428;8.378;2024-03-02T01:32:51;16.20;;;10.05;;
64854;SDS011;51321;50.428;8.378;2024-03-02T01:35:33;14.75;;;8.75;;
64854;SDS011;51321;50.428;8.378;2024-03-02T01:38:14;14.82;;;10.05;;
64854;SDS011;51321;50.428;8.378;2024-03-02T01:40:55;16.90;;;9.43;;
64854;SDS011;51321;50.428;8.378;2024-03-02T01:43:35;12.98;;;8.50;;
64854;SDS011;51321;50.428;8.378;2024-03-02T01:46:16;12.38;;;8.55;;
64854;SDS011;51321;50.428;8.378;2024-03-02T01:48:56;12.73;;;7.97;;
64854;SDS011;51321;50.428;8.378;2024-03-02T01:51:39;12.73;;;8.05;;
64854;SDS011;51321;50.428;8.378;2024-03-02T01:54:19;19.07;;;8.80;;
64854;SDS011;51321;50.428;8.378;2024-03-02T01:57:00;14.75;;;8.25;;
64854;SDS011;51321;50.428;8.378;2024-03-02T01:59:41;14.60;;;9.02;;
64854;SDS011;51321;50.428;8.378;2024-03-02T02:02:21;14.20;;;7.95;;
64854;SDS011;51321;50.428;8.378;2024-03-02T02:05:02;11.43;;;7.38;;
64854;SDS011;51321;50.428;8.378;2024-03-02T02:07:44;13.05;;;7.53;;
64854;SDS011;51321;50.428;8.378;2024-03-02T02:10:25;9.93;;;6.93;;
64854;SDS011;51321;50.428;8.378;2024-03-02T02:13:06;13.98;;;9.70;;
64854;SDS011;51321;50.428;8.378;2024-03-02T02:15:47;14.27;;;9.45;;
64854;SDS011;51321;50.428;8.378;2024-03-02T02:18:27;14.07;;;8.77;;
64854;SDS011;51321;50.428;8.378;2024-03-02T02:21:08;11.57;;;7.53;;
64854;SDS011;51321;50.428;8.378;2024-03-02T02:23:50;11.20;;;7.70;;
64854;SDS011;51321;50.428;8.378;2024-03-02T02:26:30;13.85;;;8.32;;
64854;SDS011;51321;50.428;8.378;2024-03-02T02:29:11;13.18;;;7.60;;
64854;SDS011;51321;50.428;8.378;2024-03-02T02:31:51;14.45;;;7.93;;
64854;SDS011;51321;50.428;8.378;2024-03-02T02:34:32;12.85;;;7.63;;
64854;SDS011;51321;50.428;8.378;2024-03-02T02:37:13;12.63;;;7.72;;
64854;SDS011;51321;50.428;8.378;2024-03-02T02:39:55;12.05;;;7.90;;
64854;SDS011;51321;50.428;8.378;2024-03-02T02:42:36;14.75;;;8.80;;
64854;SDS011;51321;50.428;8.378;2024-03-02T02:45:17;15.02;;;9.05;;
64854;SDS011;51321;50.428;8.378;2024-03-02T02:47:57;14.45;;;8.48;;
64854;SDS011;51321;50.428;8.378;2024-03-02T02:50:41;18.02;;;9.48;;
64854;SDS011;51321;50.428;8.378;2024-03-02T02:53:21;21.63;;;10.45;;
64854;SDS011;51321;50.428;8.378;2024-03-02T02:56:03;15.15;;;9.27;;
64854;SDS011;51321;50.428;8.378;2024-03-02T02:58:44;17.70;;;8.43;;
64854;SDS011;51321;50.428;8.378;2024-03-02T03:01:25;15.57;;;9.00;;
64854;SDS011;51321;50.428;8.378;2024-03-02T03:04:05;13.75;;;8.60;;
64854;SDS011;51321;50.428;8.378;2024-03-02T03:06:46;15.57;;;8.88;;
64854;SDS011;51321;50.428;8.378;2024-03-02T03:09:26;15.15;;;8.55;;
64854;SDS011;51321;50.428;8.378;2024-03-02T03:12:08;15.00;;;8.13;;
64854;SDS011;51321;50.428;8.378;2024-03-02T03:14:48;18.60;;;9.47;;
64854;SDS011;51321;50.428;8.378;2024-03-02T03:17:29;11.88;;;7.78;;
64854;SDS011;51321;50.428;8.378;2024-03-02T03:20:09;12.60;;;7.57;;
64854;SDS011;51321;50.428;8.378;2024-03-02T03:22:51;13.93;;;7.63;;
64854;SDS011;51321;50.428;8.378;2024-03-02T03:25:31;11.73;;;7.47;;
64854;SDS011;51321;50.428;8.378;2024-03-02T03:28:13;11.85;;;7.75;;
64854;SDS011;51321;50.428;8.378;2024-03-02T03:30:54;13.87;;;7.63;;
64854;SDS011;51321;50.428;8.378;2024-03-02T03:33:34;9.18;;;6.78;;
64854;SDS011;51321;50.428;8.378;2024-03-02T03:36:15;11.85;;;6.72;;
64854;SDS011;51321;50.428;8.378;2024-03-02T03:38:55;9.88;;;7.53;;
64854;SDS011;51321;50.428;8.378;2024-03-02T03:41:37;9.48;;;6.38;;
64854;SDS011;51321;50.428;8.378;2024-03-02T03:44:19;11.45;;;8.57;;
64854;SDS011;51321;50.428;8.378;2024-03-02T03:46:59;16.92;;;8.18;;
64854;SDS011;51321;50.428;8.378;2024-03-02T03:49:41;14.00;;;8.90;;
64854;SDS011;51321;50.428;8.378;2024-03-02T03:52:21;14.60;;;8.13;;
64854;SDS011;51321;50.428;8.378;2024-03-02T03:55:01;9.93;;;7.32;;
64854;SDS011;51321;50.428;8.378;2024-03-02T03:57:43;10.80;;;7.00;;
64854;SDS011;51321;50.428;8.378;2024-03-02T04:00:25;13.68;;;7.65;;
64854;SDS011;51321;50.428;8.378;2024-03-02T04:03:06;10.25;;;6.60;;
64854;SDS011;51321;50.428;8.378;2024-03-02T04:05:47;10.68;;;6.93;;
64854;SDS011;51321;50.428;8.378;2024-03-02T04:08:27;13.30;;;7.18;;
64854;SDS011;51321;50.428;8.378;2024-03-02T04:11:08;10.15;;;6.70;;
64854;SDS011;51321;50.428;8.378;2024-03-02T04:13:48;12.35;;;6.47;;
64854;SDS011;51321;50.428;8.378;2024-03-02T04:16:29;11.73;;;7.30;;
64854;SDS011;51321;50.428;8.378;2024-03-02T04:19:10;11.75;;;7.15;;
64854;SDS011;51321;50.428;8.378;2024-03-02T04:21:50;8.70;;;6.78;;
64854;SDS011;51321;50.428;8.378;2024-03-02T04:24:31;8.73;;;6.35;;
64854;SDS011;51321;50.428;8.378;2024-03-02T04:27:12;9.30;;;6.50;;
64854;SDS011;51321;50.428;8.378;2024-03-02T04:29:52;11.82;;;7.20;;
64854;SDS011;51321;50.428;8.378;2024-03-02T04:32:34;11.23;;;7.53;;
64854;SDS011;51321;50.428;8.378;2024-03-02T04:35:14;10.48;;;7.55;;
64854;SDS011;51321;50.428;8.378;2024-03-02T04:37:55;15.70;;;7.55;;
64854;SDS011;51321;50.428;8.378;2024-03-02T04:40:36;14.75;;;7.88;;
64854;SDS011;51321;50.428;8.378;2024-03-02T04:43:16;12.82;;;7.43;;
64854;SDS011;51321;50.428;8.378;2024-03-02T04:45:57;12.60;;;7.57;;
64854;SDS011;51321;50.428;8.378;2024-03-02T04:48:39;12.00;;;7.63;;
64854;SDS011;51321;50.428;8.378;2024-03-02T04:51:20;9.77;;;7.18;;
64854;SDS011;51321;50.428;8.378;2024-03-02T04:54:01;11.10;;;7.07;;
64854;SDS011;51321;50.428;8.378;2024-03-02T04:56:41;11.07;;;6.93;;
64854;SDS011;51321;50.428;8.378;2024-03-02T04:59:28;10.13;;;7.35;;
64854;SDS011;51321;50.428;8.378;2024-03-02T05:02:09;12.25;;;7.10;;
64854;SDS011;51321;50.428;8.378;2024-03-02T05:04:53;12.93;;;7.95;;
64854;SDS011;51321;50.428;8.378;2024-03-02T05:07:34;11.70;;;9.30;;
64854;SDS011;51321;50.428;8.378;2024-03-02T05:10:15;10.65;;;7.65;;
64854;SDS011;51321;50.428;8.378;2024-03-02T05:12:55;12.20;;;8.43;;
64854;SDS011;51321;50.428;8.378;2024-03-02T05:15:37;9.93;;;7.63;;
64854;SDS011;51321;50.428;8.378;2024-03-02T05:18:18;11.75;;;7.57;;
64854;SDS011;51321;50.428;8.378;2024-03-02T05:20:59;12.13;;;7.05;;
64854;SDS011;51321;50.428;8.378;2024-03-02T05:23:40;13.50;;;7.40;;
64854;SDS011;51321;50.428;8.378;2024-03-02T05:26:20;10.05;;;6.65;;
64854;SDS011;51321;50.428;8.378;2024-03-02T05:29:01;11.68;;;7.50;;
64854;SDS011;51321;50.428;8.378;2024-03-02T05:31:50;8.13;;;6.30;;
64854;SDS011;51321;50.428;8.378;2024-03-02T05:34:30;12.00;;;7.57;;
64854;SDS011;51321;50.428;8.378;2024-03-02T05:37:14;13.80;;;6.95;;
64854;SDS011;51321;50.428;8.378;2024-03-02T05:39:55;11.98;;;7.30;;
64854;SDS011;51321;50.428;8.378;2024-03-02T05:42:35;10.48;;;7.05;;
64854;SDS011;51321;50.428;8.378;2024-03-02T05:45:15;9.45;;;6.72;;
64854;SDS011;51321;50.428;8.378;2024-03-02T05:47:56;9.40;;;6.45;;
64854;SDS011;51321;50.428;8.378;2024-03-02T05:50:37;11.23;;;7.10;;
64854;SDS011;51321;50.428;8.378;2024-03-02T05:53:19;10.68;;;6.90;;
64854;SDS011;51321;50.428;8.378;2024-03-02T05:56:00;10.18;;;7.40;;
64854;SDS011;51321;50.428;8.378;2024-03-02T05:58:40;11.35;;;7.03;;
64854;SDS011;51321;50.428;8.378;2024-03-02T06:01:36;10.82;;;8.02;;
64854;SDS011;51321;50.428;8.378;2024-03-02T06:04:16;13.88;;;8.00;;
64854;SDS011;51321;50.428;8.378;2024-03-02T06:06:58;10.68;;;6.82;;
64854;SDS011;51321;50.428;8.378;2024-03-02T06:09:40;14.68;;;7.80;;
64854;SDS011;51321;50.428;8.378;2024-03-02T06:12:20;9.88;;;7.03;;
64854;SDS011;51321;50.428;8.378;2024-03-02T06:15:01;10.80;;;7.47;;
64854;SDS011;51321;50.428;8.378;2024-03-02T06:17:42;14.27;;;11.50;;
64854;SDS011;51321;50.428;8.378;2024-03-02T06:20:23;24.27;;;18.05;;
64854;SDS011;51321;50.428;8.378;2024-03-02T06:23:05;22.00;;;16.08;;
64854;SDS011;51321;50.428;8.378;2024-03-02T06:25:47;20.50;;;14.43;;
64854;SDS011;51321;50.428;8.378;2024-03-02T06:28:28;15.57;;;10.05;;
64854;SDS011;51321;50.428;8.378;2024-03-02T06:31:08;14.32;;;10.38;;
64854;SDS011;51321;50.428;8.378;2024-03-02T06:33:48;13.00;;;9.27;;
64854;SDS011;51321;50.428;8.378;2024-03-02T06:36:29;15.95;;;11.45;;
64854;SDS011;51321;50.428;8.378;2024-03-02T06:39:09;18.60;;;11.98;;
64854;SDS011;51321;50.428;8.378;2024-03-02T06:41:52;15.80;;;10.02;;
64854;SDS011;51321;50.428;8.378;2024-03-02T06:44:33;16.63;;;11.33;;
64854;SDS011;51321;50.428;8.378;2024-03-02T06:47:14;21.00;;;13.57;;
64854;SDS011;51321;50.428;8.378;2024-03-02T06:49:55;15.20;;;10.75;;
64854;SDS011;51321;50.428;8.378;2024-03-02T06:52:37;15.13;;;10.88;;
64854;SDS011;51321;50.428;8.378;2024-03-02T06:55:17;14.38;;;9.48;;
64854;SDS011;51321;50.428;8.378;2024-03-02T06:57:59;14.32;;;9.82;;
64854;SDS011;51321;50.428;8.378;2024-03-02T07:00:39;19.35;;;11.60;;
64854;SDS011;51321;50.428;8.378;2024-03-02T07:03:20;22.83;;;13.27;;
64854;SDS011;51321;50.428;8.378;2024-03-02T07:06:00;19.67;;;12.23;;
64854;SDS011;51321;50.428;8.378;2024-03-02T07:08:42;23.20;;;12.00;;
64854;SDS011;51321;50.428;8.378;2024-03-02T07:11:22;15.68;;;10.30;;
64854;SDS011;51321;50.428;8.378;2024-03-02T07:14:04;14.90;;;9.80;;
64854;SDS011;51321;50.428;8.378;2024-03-02T07:16:45;18.17;;;11.00;;
64854;SDS011;51321;50.428;8.378;2024-03-02T07:19:25;15.23;;;10.13;;
64854;SDS011;51321;50.428;8.378;2024-03-02T07:22:06;19.83;;;12.23;;
64854;SDS011;51321;50.428;8.378;2024-03-02T07:24:48;21.10;;;11.65;;
64854;SDS011;51321;50.428;8.378;2024-03-02T07:27:28;25.40;;;13.05;;
64854;SDS011;51321;50.428;8.378;2024-03-02T07:30:13;17.27;;;11.20;;
64854;SDS011;51321;50.428;8.378;2024-03-02T07:32:55;17.38;;;12.68;;
64854;SDS011;51321;50.428;8.378;2024-03-02T07:35:35;17.27;;;11.82;;
64854;SDS011;51321;50.428;8.378;2024-03-02T07:38:16;23.33;;;13.70;;
64854;SDS011;51321;50.428;8.378;2024-03-02T07:40:57;27.42;;;13.65;;
64854;SDS011;51321;50.428;8.378;2024-03-02T07:43:39;23.07;;;15.47;;
64854;SDS011;51321;50.428;8.378;2024-03-02T07:46:21;19.27;;;12.25;;
64854;SDS011;51321;50.428;8.378;2024-03-02T07:49:01;15.05;;;9.90;;
64854;SDS011;51321;50.428;8.378;2024-03-02T07:51:42;14.13;;;9.18;;
64854;SDS011;51321;50.428;8.378;2024-03-02T07:54:22;15.90;;;9.48;;
64854;SDS011;51321;50.428;8.378;2024-03-02T07:57:03;17.52;;;10.88;;
64854;SDS011;51321;50.428;8.378;2024-03-02T07:59:44;13.48;;;9.18;;
64854;SDS011;51321;50.428;8.378;2024-03-02T08:02:25;16.55;;;11.52;;
64854;SDS011;51321;50.428;8.378;2024-03-02T08:05:06;17.55;;;12.07;;
64854;SDS011;51321;50.428;8.378;2024-03-02T08:07:47;19.63;;;9.80;;
64854;SDS011;51321;50.428;8.378;2024-03-02T08:10:31;15.55;;;9.15;;
64854;SDS011;51321;50.428;8.378;2024-03-02T08:13:12;15.20;;;8.75;;
64854;SDS011;51321;50.428;8.378;2024-03-02T08:15:52;12.93;;;8.98;;
64854;SDS011;51321;50.428;8.378;2024-03-02T08:18:34;13.15;;;9.23;;
64854;SDS011;51321;50.428;8.378;2024-03-02T08:21:15;12.47;;;9.00;;
64854;SDS011;51321;50.428;8.378;2024-03-02T08:23:56;15.02;;;10.10;;
64854;SDS011;51321;50.428;8.378;2024-03-02T08:26:37;30.77;;;17.77;;
64854;SDS011;51321;50.428;8.378;2024-03-02T08:29:17;16.27;;;11.45;;
64854;SDS011;51321;50.428;8.378;2024-03-02T08:31:58;14.02;;;8.75;;
64854;SDS011;51321;50.428;8.378;2024-03-02T08:34:40;12.82;;;9.70;;
64854;SDS011;51321;50.428;8.378;2024-03-02T08:37:20;12.10;;;9.45;;
64854;SDS011;51321;50.428;8.378;2024-03-02T08:40:01;16.00;;;9.70;;
64854;SDS011;51321;50.428;8.378;2024-03-02T08:42:43;13.23;;;9.77;;
64854;SDS011;51321;50.428;8.378;2024-03-02T08:45:24;13.02;;;10.05;;
64854;SDS011;51321;50.428;8.378;2024-03-02T08:48:05;15.50;;;10.57;;
64854;SDS011;51321;50.428;8.378;2024-03-02T08:50:50;14.13;;;10.85;;
64854;SDS011;51321;50.428;8.378;2024-03-02T08:53:31;12.15;;;9.88;;
64854;SDS011;51321;50.428;8.378;2024-03-02T08:56:11;12.98;;;10.48;;
64854;SDS011;51321;50.428;8.378;2024-03-02T08:58:52;17.50;;;11.70;;
64854;SDS011;51321;50.428;8.378;2024-03-02T09:01:33;16.23;;;11.18;;
64854;SDS011;51321;50.428;8.378;2024-03-02T09:04:14;13.63;;;10.15;;
64854;SDS011;51321;50.428;8.378;2024-03-02T09:06:55;13.85;;;9.35;;
64854;SDS011;51321;50.428;8.378;2024-03-02T09:09:36;16.70;;;11.60;;
64854;SDS011;51321;50.428;8.378;2024-03-02T09:12:17;12.07;;;8.10;;
64854;SDS011;51321;50.428;8.378;2024-03-02T09:14:58;10.85;;;7.45;;
64854;SDS011;51321;50.428;8.378;2024-03-02T09:17:38;8.77;;;6.35;;
64854;SDS011;51321;50.428;8.378;2024-03-02T09:20:19;7.85;;;6.00;;
64854;SDS011;51321;50.428;8.378;2024-03-02T09:23:00;8.45;;;5.72;;
64854;SDS011;51321;50.428;8.378;2024-03-02T09:25:41;7.73;;;5.70;;
64854;SDS011;51321;50.428;8.378;2024-03-02T09:28:22;7.72;;;5.30;;
64854;SDS011;51321;50.428;8.378;2024-03-02T09:31:02;10.88;;;5.60;;
64854;SDS011;51321;50.428;8.378;2024-03-02T09:33:43;7.07;;;4.60;;
64854;SDS011;51321;50.428;8.378;2024-03-02T09:36:23;4.47;;;3.22;;
64854;SDS011;51321;50.428;8.378;2024-03-02T09:39:05;3.25;;;2.30;;
64854;SDS011;51321;50.428;8.378;2024-03-02T09:41:48;2.95;;;1.70;;
64854;SDS011;51321;50.428;8.378;2024-03-02T09:44:29;2.97;;;1.48;;
64854;SDS011;51321;50.428;8.378;2024-03-02T09:47:10;2.90;;;1.08;;
64854;SDS011;51321;50.428;8.378;2024-03-02T09:49:50;1.65;;;1.00;;
64854;SDS011;51321;50.428;8.378;2024-03-02T09:52:31;3.30;;;1.52;;
64854;SDS011;51321;50.428;8.378;2024-03-02T09:55:14;1.50;;;0.82;;
64854;SDS011;51321;50.428;8.378;2024-03-02T10:00:36;3.30;;;0.90;;
64854;SDS011;51321;50.428;8.378;2024-03-02T10:03:16;1.67;;;0.95;;
64854;SDS011;51321;50.428;8.378;2024-03-02T10:08:58;2.85;;;1.10;;
64854;SDS011;51321;50.428;8.378;2024-03-02T10:11:40;1.52;;;0.82;;
64854;SDS011;51321;50.428;8.378;2024-03-02T10:14:20;2.90;;;1.10;;
64854;SDS011;51321;50.428;8.378;2024-03-02T10:17:04;2.60;;;1.23;;
64854;SDS011;51321;50.428;8.378;2024-03-02T10:19:46;3.90;;;2.75;;
64854;SDS011;51321;50.428;8.378;2024-03-02T10:22:26;2.00;;;1.58;;
64854;SDS011;51321;50.428;8.378;2024-03-02T10:25:07;2.58;;;1.20;;
64854;SDS011;51321;50.428;8.378;2024-03-02T10:28:09;1.05;;;0.73;;
64854;SDS011;51321;50.428;8.378;2024-03-02T10:30:49;2.42;;;1.00;;
64854;SDS011;51321;50.428;8.378;2024-03-02T10:33:31;2.45;;;1.08;;
64854;SDS011;51321;50.428;8.378;2024-03-02T10:36:12;1.10;;;0.60;;
64854;SDS011;51321;50.428;8.378;2024-03-02T10:38:52;1.55;;;0.80;;
64854;SDS011;51321;50.428;8.378;2024-03-02T10:41:34;1.83;;;0.85;;
64854;SDS011;51321;50.428;8.378;2024-03-02T10:44:17;1.60;;;1.00;;
64854;SDS011;51321;50.428;8.378;2024-03-02T10:46:59;2.45;;;0.77;;
64854;SDS011;51321;50.428;8.378;2024-03-02T10:49:42;1.65;;;0.70;;
64854;SDS011;51321;50.428;8.378;2024-03-02T10:52:24;1.95;;;0.60;;
64854;SDS011;51321;50.428;8.378;2024-03-02T10:55:04;1.58;;;0.95;;
64854;SDS011;51321;50.428;8.378;2024-03-02T10:57:50;2.92;;;1.25;;
64854;SDS011;51321;50.428;8.378;2024-03-02T11:00:33;5.90;;;3.05;;
64854;SDS011;51321;50.428;8.378;2024-03-02T11:03:16;2.13;;;1.50;;
64854;SDS011;51321;50.428;8.378;2024-03-02T11:05:58;1.50;;;0.95;;
64854;SDS011;51321;50.428;8.378;2024-03-02T11:08:40;1.08;;;0.70;;
64854;SDS011;51321;50.428;8.378;2024-03-02T11:11:24;1.33;;;0.63;;
64854;SDS011;51321;50.428;8.378;2024-03-02T11:14:10;1.77;;;0.82;;
64854;SDS011;51321;50.428;8.378;2024-03-02T11:16:55;2.25;;;0.98;;
64854;SDS011;51321;50.428;8.378;2024-03-02T11:19:36;0.93;;;0.60;;
64854;SDS011;51321;50.428;8.378;2024-03-02T11:22:19;5.50;;;0.93;;
64854;SDS011;51321;50.428;8.378;2024-03-02T11:25:00;1.85;;;0.80;;
64854;SDS011;51321;50.428;8.378;2024-03-02T11:28:00;2.25;;;0.68;;
64854;SDS011;51321;50.428;8.378;2024-03-02T11:30:51;2.72;;;0.80;;
64854;SDS011;51321;50.428;8.378;2024-03-02T11:33:33;1.85;;;0.38;;
64854;SDS011;51321;50.428;8.378;2024-03-02T11:36:14;1.15;;;0.57;;
64854;SDS011;51321;50.428;8.378;2024-03-02T11:38:56;1.45;;;0.40;;
64854;SDS011;51321;50.428;8.378;2024-03-02T11:41:37;1.08;;;0.50;;
64854;SDS011;51321;50.428;8.378;2024-03-02T11:44:17;1.33;;;0.50;;
64854;SDS011;51321;50.428;8.378;2024-03-02T11:46:58;0.95;;;0.50;;
64854;SDS011;51321;50.428;8.378;2024-03-02T11:49:41;0.60;;;0.20;;
64854;SDS011;51321;50.428;8.378;2024-03-02T11:52:24;1.00;;;0.35;;
64854;SDS011;51321;50.428;8.378;2024-03-02T11:55:07;0.77;;;0.20;;
64854;SDS011;51321;50.428;8.378;2024-03-02T11:57:48;0.88;;;0.35;;
64854;SDS011;51321;50.428;8.378;2024-03-02T12:00:29;1.58;;;0.50;;
64854;SDS011;51321;50.428;8.378;2024-03-02T12:03:12;1.15;;;0.60;;
64854;SDS011;51321;50.428;8.378;2024-03-02T12:05:55;0.75;;;0.20;;
64854;SDS011;51321;50.428;8.378;2024-03-02T12:08:36;0.63;;;0.45;;
64854;SDS011;51321;50.428;8.378;2024-03-02T12:11:16;1.20;;;0.50;;
64854;SDS011;51321;50.428;8.378;2024-03-02T12:13:57;0.73;;;0.30;;
64854;SDS011;51321;50.428;8.378;2024-03-02T12:16:38;1.27;;;0.50;;
64854;SDS011;51321;50.428;8.378;2024-03-02T12:19:18;0.70;;;0.10;;
64854;SDS011;51321;50.428;8.378;2024-03-02T12:22:01;1.40;;;0.40;;
64854;SDS011;51321;50.428;8.378;2024-03-02T12:24:41;2.72;;;0.40;;
64854;SDS011;51321;50.428;8.378;2024-03-02T12:30:20;2.17;;;1.45;;
64854;SDS011;51321;50.428;8.378;2024-03-02T12:33:02;6.18;;;4.03;;
64854;SDS011;51321;50.428;8.378;2024-03-02T12:35:43;1.85;;;0.40;;
64854;SDS011;51321;50.428;8.378;2024-03-02T12:38:25;1.55;;;0.30;;
64854;SDS011;51321;50.428;8.378;2024-03-02T12:41:07;0.65;;;0.38;;
64854;SDS011;51321;50.428;8.378;2024-03-02T12:43:48;1.23;;;0.50;;
64854;SDS011;51321;50.428;8.378;2024-03-02T12:46:28;1.67;;;0.50;;
64854;SDS011;51321;50.428;8.378;2024-03-02T12:49:09;0.60;;;0.30;;
64854;SDS011;51321;50.428;8.378;2024-03-02T12:51:51;2.20;;;0.40;;
64854;SDS011;51321;50.428;8.378;2024-03-02T12:54:33;1.05;;;0.45;;
64854;SDS011;51321;50.428;8.378;2024-03-02T12:57:16;1.00;;;0.45;;
64854;SDS011;51321;50.428;8.378;2024-03-02T12:59:58;1.30;;;0.52;;
64854;SDS011;51321;50.428;8.378;2024-03-02T13:02:39;1.88;;;0.63;;
64854;SDS011;51321;50.428;8.378;2024-03-02T13:05:21;2.55;;;0.80;;
64854;SDS011;51321;50.428;8.378;2024-03-02T13:08:02;1.58;;;0.90;;
64854;SDS011;51321;50.428;8.378;2024-03-02T13:10:44;2.90;;;1.20;;
64854;SDS011;51321;50.428;8.378;2024-03-02T13:13:25;1.58;;;0.88;;
64854;SDS011;51321;50.428;8.378;2024-03-02T13:16:07;2.00;;;0.95;;
64854;SDS011;51321;50.428;8.378;2024-03-02T13:18:50;3.40;;;1.00;;
64854;SDS011;51321;50.428;8.378;2024-03-02T13:21:30;2.28;;;0.70;;
64854;SDS011;51321;50.428;8.378;2024-03-02T13:24:11;2.65;;;0.50;;
64854;SDS011;51321;50.428;8.378;2024-03-02T13:26:53;1.98;;;0.70;;
64854;SDS011;51321;50.428;8.378;2024-03-02T13:29:35;1.13;;;0.60;;
64854;SDS011;51321;50.428;8.378;2024-03-02T13:32:16;2.58;;;1.20;;
64854;SDS011;51321;50.428;8.378;2024-03-02T13:34:59;2.88;;;1.88;;
64854;SDS011;51321;50.428;8.378;2024-03-02T13:37:41;2.92;;;2.05;;
64854;SDS011;51321;50.428;8.378;2024-03-02T13:40:22;2.90;;;1.90;;
64854;SDS011;51321;50.428;8.378;2024-03-02T13:43:04;5.63;;;4.43;;
64854;SDS011;51321;50.428;8.378;2024-03-02T13:45:45;1.40;;;1.00;;
64854;SDS011;51321;50.428;8.378;2024-03-02T13:48:26;4.40;;;0.70;;
64854;SDS011;51321;50.428;8.378;2024-03-02T13:51:06;2.00;;;0.57;;
64854;SDS011;51321;50.428;8.378;2024-03-02T13:53:47;1.60;;;1.00;;
64854;SDS011;51321;50.428;8.378;2024-03-02T13:56:28;4.38;;;1.42;;
64854;SDS011;51321;50.428;8.378;2024-03-02T13:59:11;1.75;;;1.10;;
64854;SDS011;51321;50.428;8.378;2024-03-02T14:01:51;2.42;;;1.23;;
64854;SDS011;51321;50.428;8.378;2024-03-02T14:04:32;1.67;;;0.80;;
64854;SDS011;51321;50.428;8.378;2024-03-02T14:07:13;1.27;;;0.80;;
64854;SDS011;51321;50.428;8.378;2024-03-02T14:09:54;1.13;;;0.73;;
64854;SDS011;51321;50.428;8.378;2024-03-02T14:12:35;1.85;;;0.88;;
64854;SDS011;51321;50.428;8.378;2024-03-02T14:18:27;1.10;;;0.77;;
64854;SDS011;51321;50.428;8.378;2024-03-02T14:21:08;2.58;;;1.10;;
64854;SDS011;51321;50.428;8.378;2024-03-02T14:23:49;2.17;;;1.00;;
64854;SDS011;51321;50.428;8.378;2024-03-02T14:26:29;2.47;;;1.38;;
64854;SDS011;51321;50.428;8.378;2024-03-02T14:29:11;3.08;;;1.27;;
64854;SDS011;51321;50.428;8.378;2024-03-02T14:31:53;1.73;;;1.13;;
64854;SDS011;51321;50.428;8.378;2024-03-02T14:34:34;3.07;;;1.90;;
64854;SDS011;51321;50.428;8.378;2024-03-02T14:37:14;1.92;;;1.42;;
64854;SDS011;51321;50.428;8.378;2024-03-02T14:39:55;3.47;;;1.50;;
64854;SDS011;51321;50.428;8.378;2024-03-02T14:42:36;2.33;;;1.25;;
64854;SDS011;51321;50.428;8.378;2024-03-02T14:45:16;2.78;;;1.58;;
64854;SDS011;51321;50.428;8.378;2024-03-02T14:47:58;3.13;;;2.17;;
64854;SDS011;51321;50.428;8.378;2024-03-02T14:50:39;3.88;;;1.73;;
64854;SDS011;51321;50.428;8.378;2024-03-02T14:53:20;2.70;;;1.88;;
64854;SDS011;51321;50.428;8.378;2024-03-02T14:56:00;2.10;;;1.58;;
64854;SDS011;51321;50.428;8.378;2024-03-02T14:58:41;4.07;;;1.80;;
64854;SDS011;51321;50.428;8.378;2024-03-02T15:01:21;2.90;;;1.98;;
64854;SDS011;51321;50.428;8.378;2024-03-02T15:04:04;1.75;;;1.40;;
64854;SDS011;51321;50.428;8.378;2024-03-02T15:06:45;2.75;;;2.10;;
64854;SDS011;51321;50.428;8.378;2024-03-02T15:09:26;1.63;;;1.23;;
64854;SDS011;51321;50.428;8.378;2024-03-02T15:12:06;2.67;;;2.00;;
64854;SDS011;51321;50.428;8.378;2024-03-02T15:14:48;4.22;;;1.65;;
64854;SDS011;51321;50.428;8.378;2024-03-02T15:17:29;3.30;;;1.88;;
64854;SDS011;51321;50.428;8.378;2024-03-02T15:20:11;2.08;;;1.58;;
64854;SDS011;51321;50.428;8.378;2024-03-02T15:22:51;4.32;;;2.15;;
64854;SDS011;51321;50.428;8.378;2024-03-02T15:25:32;2.72;;;1.80;;
64854;SDS011;51321;50.428;8.378;2024-03-02T15:28:13;3.70;;;1.73;;
64854;SDS011;51321;50.428;8.378;2024-03-02T15:30:53;3.10;;;1.60;;
64854;SDS011;51321;50.428;8.378;2024-03-02T15:33:33;3.10;;;1.80;;
64854;SDS011;51321;50.428;8.378;2024-03-02T15:36:15;2.53;;;1.77;;
64854;SDS011;51321;50.428;8.378;2024-03-02T15:38:56;3.10;;;2.03;;
64854;SDS011;51321;50.428;8.378;2024-03-02T15:41:36;2.70;;;1.80;;
64854;SDS011;51321;50.428;8.378;2024-03-02T15:44:19;4.68;;;3.55;;
64854;SDS011;51321;50.428;8.378;2024-03-02T15:46:59;3.28;;;2.15;;
64854;SDS011;51321;50.428;8.378;2024-03-02T15:49:40;3.10;;;2.00;;
64854;SDS011;51321;50.428;8.378;2024-03-02T15:52:22;3.65;;;1.90;;
64854;SDS011;51321;50.428;8.378;2024-03-02T15:55:02;3.90;;;2.28;;
64854;SDS011;51321;50.428;8.378;2024-03-02T15:57:44;3.20;;;2.38;;
64854;SDS011;51321;50.428;8.378;2024-03-02T16:00:25;4.22;;;1.90;;
64854;SDS011;51321;50.428;8.378;2024-03-02T16:03:06;3.75;;;2.08;;
64854;SDS011;51321;50.428;8.378;2024-03-02T16:05:46;6.15;;;2.55;;
64854;SDS011;51321;50.428;8.378;2024-03-02T16:08:28;4.65;;;2.10;;
64854;SDS011;51321;50.428;8.378;2024-03-02T16:11:08;3.75;;;1.92;;
64854;SDS011;51321;50.428;8.378;2024-03-02T16:13:49;3.72;;;2.05;;
64854;SDS011;51321;50.428;8.378;2024-03-02T16:16:29;4.45;;;2.33;;